Time;durP1;ratioP1;P1;durP2;ratioP2;P2;SDS_P1;SDS_P2;PMS_P1;PMS_P2;Temp;Humidity;BMP_temperature;BMP_pressure;BME280_temperature;BME280_humidity;BME280_pressure;Samples;Min_cycle;Max_cycle;Signal;HPM_P1;HPM_P2
2023/12/22 06:12:33;;;;;;;;;;;;;;;1.03;100.00;97289.77;1842715;76;20133;-80
2023/12/22 06:14:57;;;;;;;;;;;;;;;1.00;100.00;97288.22;1807996;78;20544;-76
2023/12/22 06:17:24;;;;;;;;;;;;;;;1.04;100.00;97287.12;1806153;78;20103;-79
2023/12/22 06:19:50;;;;;;;;;;;;;;;1.09;100.00;97290.22;1813309;78;20096;-72
2023/12/22 06:22:16;;;;;;;;;;;;;;;1.15;100.00;97296.72;1807977;78;20110;-75
2023/12/22 06:24:43;;;;;;;;;;;;;;;1.19;100.00;97286.19;1800885;80;20099;-73
2023/12/22 06:27:09;;;;;;;;;;;;;;;1.23;100.00;97281.20;1804236;78;20456;-74
2023/12/22 06:29:36;;;;;;;;;;;;;;;1.28;100.00;97285.58;1808036;78;20160;-72
2023/12/22 06:34:37;;;;;;;;;;;;;;;1.38;100.00;97283.27;1808758;78;20146;-75
2023/12/22 06:37:03;;;;;;;;;;;;;;;1.42;100.00;97290.31;1830605;78;20108;-75
2023/12/22 06:39:31;;;;;;;;;;;;;;;1.44;100.00;97287.19;1814063;78;20366;-79
2023/12/22 06:41:57;;;;;;;;;;;;;;;1.46;100.00;97296.44;1811376;78;20104;-77
2023/12/22 06:44:25;;;;;;;;;;;;;;;1.52;100.00;97293.95;1827911;78;20428;-72
2023/12/22 06:46:52;;;;;;;;;;;;;;;1.55;100.00;97290.73;1824527;78;20182;-70
2023/12/22 06:49:18;;;;;;;;;;;;;;;1.59;100.00;97287.52;1833530;78;20088;-72
2023/12/22 06:51:45;;;;;;;;;;;;;;;1.60;100.00;97281.47;1820071;78;20160;-73
2023/12/22 06:54:11;;;;;;;;;;;;;;;1.63;100.00;97277.39;1807715;78;20088;-77
2023/12/22 06:56:39;;;;;;;;;;;;;;;1.65;100.00;97271.70;1827661;78;20129;-75
2023/12/22 06:59:06;;;;;;;;;;;;;;;1.67;100.00;97268.58;1807065;78;20158;-68
2023/12/22 07:01:33;;;;;;;;;;;;;;;1.67;100.00;97269.87;1826642;78;20119;-69
2023/12/22 07:04:01;;;;;;;;;;;;;;;1.66;100.00;97260.52;1812327;78;20101;-70
2023/12/22 07:06:29;;;;;;;;;;;;;;;1.66;100.00;97262.63;1815502;78;20084;-69
2023/12/22 07:09:01;;;;;;;;;;;;;;;1.68;100.00;97258.69;1792465;78;20664;-72
2023/12/22 07:11:28;;;;;;;;;;;;;;;1.68;100.00;97258.69;1818244;78;20161;-72
2023/12/22 07:13:54;;;;;;;;;;;;;;;1.68;100.00;97263.81;1809879;79;20468;-70
2023/12/22 07:16:21;;;;;;;;;;;;;;;1.67;100.00;97255.30;1816277;79;20121;-71
2023/12/22 07:18:51;;;;;;;;;;;;;;;1.66;100.00;97255.40;1789510;79;20116;-79
2023/12/22 07:21:21;;;;;;;;;;;;;;;1.66;100.00;97253.66;1808201;79;20400;-70
2023/12/22 07:23:47;;;;;;;;;;;;;;;1.65;100.00;97249.45;1820943;79;20149;-71
2023/12/22 07:26:13;;;;;;;;;;;;;;;1.66;100.00;97252.83;1820983;79;20142;-76
2023/12/22 07:28:40;;;;;;;;;;;;;;;1.65;100.00;97255.86;1810496;79;20370;-73
2023/12/22 07:43:36;;;;;;;;;;;;;;;1.60;100.00;97232.73;1785688;79;20391;-72
2023/12/22 07:46:03;;;;;;;;;;;;;;;1.57;100.00;97236.78;1818359;79;20160;-74
2023/12/22 07:48:32;;;;;;;;;;;;;;;1.55;100.00;97237.34;1794409;79;20156;-76
2023/12/22 07:51:01;;;;;;;;;;;;;;;1.52;100.00;97227.28;1807762;79;20181;-75
2023/12/22 07:53:29;;;;;;;;;;;;;;;1.51;100.00;97230.76;1800732;79;20157;-72
2023/12/22 08:01:21;;;;;;;;;;;;;;;1.46;100.00;97226.38;1808184;79;20166;-73
2023/12/22 08:03:48;;;;;;;;;;;;;;;1.48;100.00;97211.27;1805748;79;20230;-70
2023/12/22 08:06:16;;;;;;;;;;;;;;;1.50;100.00;97209.42;1790006;79;20129;-72
2023/12/22 08:08:43;;;;;;;;;;;;;;;1.50;100.00;97207.32;1807477;79;20467;-70
2023/12/22 08:11:10;;;;;;;;;;;;;;;1.54;100.00;97211.33;1806496;79;20134;-70
2023/12/22 08:13:37;;;;;;;;;;;;;;;1.54;100.00;97204.92;1806111;79;20152;-72
2023/12/22 08:16:04;;;;;;;;;;;;;;;1.57;100.00;97208.57;1815074;79;20094;-71
2023/12/22 08:18:32;;;;;;;;;;;;;;;1.57;100.00;97202.16;1820137;79;20110;-79
2023/12/22 08:20:58;;;;;;;;;;;;;;;1.57;100.00;97200.88;1815804;79;20125;-74
2023/12/22 08:23:27;;;;;;;;;;;;;;;1.59;100.00;97196.47;1816944;79;20094;-73
2023/12/22 08:25:53;;;;;;;;;;;;;;;1.61;100.00;97190.29;1806112;77;20172;-70
2023/12/22 08:28:20;;;;;;;;;;;;;;;1.64;100.00;97186.25;1812968;79;20097;-78
2023/12/22 08:30:46;;;;;;;;;;;;;;;1.66;100.00;97193.38;1819687;79;20245;-79
2023/12/22 08:33:13;;;;;;;;;;;;;;;1.68;100.00;97182.56;1818957;79;20108;-77
2023/12/22 08:35:39;;;;;;;;;;;;;;;1.73;100.00;97180.98;1807167;79;20094;-76
2023/12/22 08:38:07;;;;;;;;;;;;;;;1.77;100.00;97179.86;1806785;79;20455;-73
2023/12/22 08:43:06;;;;;;;;;;;;;;;1.80;100.00;97178.83;1810016;79;20126;-71
2023/12/22 08:45:32;;;;;;;;;;;;;;;1.80;100.00;97172.42;1815275;79;20470;-75
2023/12/22 08:48:00;;;;;;;;;;;;;;;1.79;100.00;97165.19;1799278;79;20169;-71
2023/12/22 08:50:28;;;;;;;;;;;;;;;1.80;100.00;97161.70;1796824;79;20099;-70
2023/12/22 08:52:55;;;;;;;;;;;;;;;1.83;100.00;97167.91;1814832;79;20462;-72
2023/12/22 09:53:57;;;;;;;;;;;;;;;1.67;100.00;97094.17;1790339;79;20441;-70
2023/12/22 09:56:23;;;;;;;;;;;;;;;1.63;100.00;97090.99;1806670;79;20184;-75
2023/12/22 09:58:50;;;;;;;;;;;;;;;1.63;100.00;97090.99;1793076;79;20137;-77
2023/12/22 10:01:16;;;;;;;;;;;;;;;1.63;100.00;97076.06;1819265;79;20419;-76
2023/12/22 10:03:44;;;;;;;;;;;;;;;1.61;100.00;97077.45;1803911;79;20155;-77
2023/12/22 10:06:10;;;;;;;;;;;;;;;1.63;100.00;97076.06;1807483;79;20554;-76
2023/12/22 10:08:37;;;;;;;;;;;;;;;1.62;100.00;97075.70;1811048;79;20134;-75
2023/12/22 10:11:05;;;;;;;;;;;;;;;1.60;100.00;97078.86;1819535;79;20138;-75
2023/12/22 10:13:32;;;;;;;;;;;;;;;1.61;100.00;97076.63;1832076;77;20095;-73
2023/12/22 10:15:59;;;;;;;;;;;;;;;1.61;100.00;97075.34;1817880;78;20090;-77
2023/12/22 10:18:49;;;;;;;;;;;;;;;1.62;100.00;97070.58;1794899;78;20124;-74
2023/12/22 10:21:17;;;;;;;;;;;;;;;1.62;100.00;97073.14;1792706;79;20451;-71
2023/12/22 10:23:43;;;;;;;;;;;;;;;1.61;100.00;97077.91;1779955;79;20122;-72
2023/12/22 10:26:13;;;;;;;;;;;;;;;1.57;100.00;97067.53;1796144;79;20089;-74
2023/12/22 10:28:41;;;;;;;;;;;;;;;1.56;100.00;97074.86;1783747;78;20113;-66
2023/12/22 10:31:07;;;;;;;;;;;;;;;1.55;100.00;97074.50;1804734;79;20368;-75
2023/12/22 10:33:35;;;;;;;;;;;;;;;1.51;100.00;97071.32;1812823;78;20127;-74
2023/12/22 10:36:02;;;;;;;;;;;;;;;1.51;100.00;97076.91;1799804;78;20113;-76
2023/12/22 10:38:34;;;;;;;;;;;;;;;1.46;100.00;97075.94;1808305;79;20145;-76
2023/12/22 10:41:02;;;;;;;;;;;;;;;1.47;100.00;97074.19;1810255;79;20094;-79
2023/12/22 10:43:29;;;;;;;;;;;;;;;1.49;100.00;97078.30;1805045;79;20126;-73
2023/12/22 10:45:56;;;;;;;;;;;;;;;1.51;100.00;97077.73;1757444;82;20160;-71
2023/12/22 10:48:23;;;;;;;;;;;;;;;1.50;100.00;97078.66;1757627;82;20181;-75
2023/12/22 10:50:51;;;;;;;;;;;;;;;1.50;100.00;97075.27;1756095;82;20166;-80
2023/12/22 10:53:17;;;;;;;;;;;;;;;1.45;100.00;97070.45;1757446;82;20125;-71
2023/12/22 10:55:46;;;;;;;;;;;;;;;1.42;100.00;97067.27;1757415;81;20161;-68
2023/12/22 10:58:13;;;;;;;;;;;;;;;1.41;100.00;97066.91;1790013;78;20110;-73
2023/12/22 11:00:40;;;;;;;;;;;;;;;1.41;100.00;97058.75;1832389;78;20100;-72
2023/12/22 11:03:08;;;;;;;;;;;;;;;1.39;100.00;97060.59;1819587;78;20154;-75
2023/12/22 11:05:34;;;;;;;;;;;;;;;1.39;100.00;97061.88;1831288;78;20159;-78
2023/12/22 11:08:05;;;;;;;;;;;;;;;1.39;100.00;97061.88;1819416;78;20102;-77
